Pinto Martins – Fortaleza International Airport

Airport
ICAO code: 
SBFZ
IATA Code: 
FOR
Summary
ICAO Region: 
CARSAM
Territory: 
Location: 
Fortaleza, Caera
Serving: 
Fortaleza
Elevation: 
82 ft
Coordinates: 
Aerial View: 
3° 46' 32.988" S, 38° 31' 55.992" W
Metar
Observation
SBFZ 281600Z 15012G22KT CAVOK 29/19 Q1014
Station
Fortaleza / pinto Martins
Date/Time
2022-06-28 16:00:00
Wind direction
150°
Wind speed
12 kts
Lowest cloud amount
clouds and visibility OK
Temperature
29°C
Dew point
19°C
Humidity
54%
QNH
1014 hPa
Weather condition
n/a

Pinto Martins – Fortaleza International Airport (IATA: FOR, ICAO: SBFZ) is the airport serving Fortaleza, Brazil.

Climatology

Tropical savanna climate (Köppen climate classification Aw)

Runways

Designator Length Width Surface Rops
13/31 2545 45 ASP Yes/Yes
Airport map: 
Aerial View: 

SKYbrary Partners:

Safety knowledge contributed by: